createdAt,value
2022-08-20T00:04:48.630Z,94384.41
2022-08-20T00:09:50.828Z,94386.00
2022-08-20T00:14:53.080Z,94384.44
2022-08-20T00:19:55.530Z,94386.78
2022-08-20T00:24:57.820Z,94387.16
2022-08-20T00:30:00.144Z,94373.19
2022-08-20T00:35:02.528Z,94377.06
2022-08-20T00:40:06.877Z,94379.41
2022-08-20T00:45:29.325Z,94375.53
2022-08-20T00:50:35.626Z,94376.31
2022-08-20T00:55:37.758Z,94372.41
2022-08-20T01:00:44.893Z,94380.56
2022-08-20T01:05:49.408Z,94377.84
2022-08-20T01:10:53.959Z,94368.53
2022-08-20T01:15:56.404Z,94378.63
2022-08-20T01:21:01.685Z,94370.84
2022-08-20T01:26:15.075Z,94385.22
2022-08-20T01:31:20.158Z,94378.25
2022-08-20T01:36:45.569Z,94380.16
2022-08-20T01:42:04.630Z,94384.47
2022-08-20T01:47:15.214Z,94391.84
2022-08-20T01:52:24.857Z,94382.94
2022-08-20T01:57:27.343Z,94379.84
2022-08-20T02:02:29.868Z,94384.09
2022-08-20T02:07:32.679Z,94380.19
2022-08-20T02:12:35.631Z,94374.38
2022-08-20T02:17:39.300Z,94363.88
2022-08-20T02:22:55.902Z,94368.16
2022-08-20T02:28:00.906Z,94383.66
2022-08-20T02:33:05.351Z,94379.41
2022-08-20T02:38:07.466Z,94381.72
2022-08-20T02:43:10.030Z,94391.75
2022-08-20T02:48:21.221Z,94390.59
2022-08-20T02:53:27.032Z,94382.84
2022-08-20T02:58:29.377Z,94388.28
2022-08-20T03:03:31.543Z,94392.50
2022-08-20T03:08:34.461Z,94388.66
2022-08-20T03:13:37.706Z,94386.75
2022-08-20T03:18:44.552Z,94393.72
2022-08-20T03:23:46.799Z,94388.66
2022-08-20T03:28:49.565Z,94396.03
2022-08-20T03:33:53.385Z,94399.53
2022-08-20T03:39:01.359Z,94409.97
2022-08-20T03:44:04.974Z,94398.72
2022-08-20T03:49:08.219Z,94404.53
2022-08-20T03:54:10.896Z,94396.72
2022-08-20T03:59:13.222Z,94403.31
2022-08-20T04:04:16.158Z,94404.81
2022-08-20T04:09:19.059Z,94410.22
2022-08-20T04:14:24.347Z,94404.44
2022-08-20T04:19:29.185Z,94404.38
2022-08-20T04:24:34.901Z,94402.00
2022-08-20T04:29:38.670Z,94407.41
2022-08-20T04:34:41.323Z,94410.06
2022-08-20T04:39:43.858Z,94408.91
2022-08-20T04:44:46.706Z,94412.75
2022-08-20T04:49:49.353Z,94425.44
2022-08-20T04:54:52.902Z,94435.91
2022-08-20T04:59:59.294Z,94424.25
2022-08-20T05:05:01.885Z,94431.19
2022-08-20T05:10:05.457Z,94434.66
2022-08-20T05:15:11.453Z,94439.63
2022-08-20T05:20:18.636Z,94452.03
2022-08-20T05:25:22.145Z,94448.56
2022-08-20T05:30:25.528Z,94458.56
2022-08-20T05:35:27.733Z,94472.91
2022-08-20T05:40:30.546Z,94468.28
2022-08-20T05:45:40.122Z,94468.59
2022-08-20T05:50:45.732Z,94482.19
2022-08-20T05:55:49.769Z,94483.38
2022-08-20T06:00:54.051Z,94495.66
2022-08-20T06:05:56.353Z,94493.78
2022-08-20T06:10:58.816Z,94497.63
2022-08-20T06:16:02.032Z,94492.63
2022-08-20T06:21:09.029Z,94495.34
2022-08-20T06:26:11.230Z,94500.41
2022-08-20T06:31:13.485Z,94506.97
2022-08-20T06:36:18.641Z,94524.78
2022-08-20T06:41:21.410Z,94513.63
2022-08-20T06:46:24.476Z,94513.66
2022-08-20T06:51:27.091Z,94512.56
2022-08-20T06:56:29.488Z,94526.91
2022-08-20T07:01:31.961Z,94520.78
2022-08-20T07:06:34.580Z,94521.59
2022-08-20T07:11:36.695Z,94519.34
2022-08-20T07:16:38.949Z,94532.63
2022-08-20T07:21:41.129Z,94535.41
2022-08-20T07:26:44.033Z,94533.19
2022-08-20T07:32:05.286Z,94534.41
2022-08-20T07:37:09.278Z,94537.56
2022-08-20T07:42:11.737Z,94526.78
2022-08-20T07:47:13.961Z,94535.00
2022-08-20T07:52:16.246Z,94526.13
2022-08-20T07:57:19.106Z,94527.66
2022-08-20T08:02:21.301Z,94531.94
2022-08-20T08:07:23.978Z,94523.84
2022-08-20T08:12:36.102Z,94531.97
2022-08-20T08:17:38.677Z,94527.31
2022-08-20T08:22:43.396Z,94526.50
2022-08-20T08:27:49.109Z,94522.88
2022-08-20T08:33:09.982Z,94519.97
2022-08-20T08:38:14.430Z,94515.47
2022-08-20T08:43:21.217Z,94523.53
2022-08-20T08:48:32.938Z,94525.59
2022-08-20T08:53:39.042Z,94516.44
2022-08-20T08:58:42.417Z,94514.41
2022-08-20T09:03:46.967Z,94520.38
2022-08-20T09:08:55.559Z,94518.88
2022-08-20T09:13:58.820Z,94513.41
2022-08-20T09:19:01.042Z,94500.56
2022-08-20T09:24:05.120Z,94504.34
2022-08-20T09:29:07.293Z,94498.13
2022-08-20T09:34:09.790Z,94497.94
2022-08-20T09:39:12.922Z,94500.56
2022-08-20T09:44:16.685Z,94485.50
2022-08-20T09:49:18.891Z,94486.94
2022-08-20T09:54:22.051Z,94493.28
2022-08-20T09:59:24.818Z,94486.09
2022-08-20T10:04:27.441Z,94494.25
2022-08-20T10:09:29.605Z,94489.25
2022-08-20T10:14:32.012Z,94502.53
2022-08-20T10:19:34.301Z,94479.25
2022-08-20T10:24:36.501Z,94487.44
2022-08-20T10:29:38.519Z,94483.81
2022-08-20T10:34:43.025Z,94482.81
2022-08-20T10:39:46.097Z,94476.03
2022-08-20T10:44:48.227Z,94489.50
2022-08-20T10:49:52.943Z,94472.56
2022-08-20T10:54:55.730Z,94466.72
2022-08-20T10:59:59.193Z,94471.03
2022-08-20T11:05:01.217Z,94472.75
2022-08-20T11:10:05.164Z,94475.88
2022-08-20T11:15:09.428Z,94464.88
2022-08-20T11:20:13.101Z,94456.69
2022-08-20T11:25:15.384Z,94449.78
2022-08-20T11:30:29.721Z,94452.47
2022-08-20T11:35:48.336Z,94448.38
2022-08-20T11:40:50.839Z,94445.94
2022-08-20T11:45:55.052Z,94442.97
2022-08-20T11:50:57.119Z,94429.81
2022-08-20T11:55:59.695Z,94427.53
2022-08-20T12:01:02.028Z,94426.63
2022-08-20T12:06:04.334Z,94419.38
2022-08-20T12:11:07.048Z,94407.75
2022-08-20T12:16:09.336Z,94408.38
2022-08-20T12:21:11.638Z,94415.06
2022-08-20T12:26:14.138Z,94405.75
2022-08-20T12:31:16.320Z,94393.91
2022-08-20T12:36:18.591Z,94391.63
2022-08-20T12:41:20.887Z,94383.63
2022-08-20T12:46:23.174Z,94373.03
2022-08-20T12:51:25.545Z,94387.28
2022-08-20T12:56:27.480Z,94374.22
2022-08-20T13:01:29.775Z,94369.47
2022-08-20T13:06:31.919Z,94360.44
2022-08-20T13:11:34.247Z,94358.72
2022-08-20T13:16:36.446Z,94353.50
2022-08-20T13:21:38.751Z,94346.00
2022-08-20T13:26:40.860Z,94349.81
2022-08-20T13:31:43.607Z,94344.47
2022-08-20T13:36:45.905Z,94325.91
2022-08-20T13:41:48.098Z,94329.91
2022-08-20T13:46:50.916Z,94316.22
2022-08-20T13:51:54.739Z,94303.34
2022-08-20T13:57:05.797Z,94303.03
2022-08-20T14:02:08.779Z,94301.38
2022-08-20T14:07:28.837Z,94295.22
2022-08-20T14:12:34.477Z,94283.09
2022-08-20T14:17:37.555Z,94284.00
2022-08-20T14:22:41.170Z,94275.88
2022-08-20T14:27:43.541Z,94272.34
2022-08-20T14:32:45.846Z,94253.19
2022-08-20T14:37:52.387Z,94257.63
2022-08-20T14:42:56.148Z,94237.81
2022-08-20T14:47:58.673Z,94237.38
2022-08-20T14:53:01.539Z,94228.78
2022-08-20T14:58:11.411Z,94222.63
2022-08-20T15:03:13.795Z,94218.97
2022-08-20T15:08:16.083Z,94198.94
2022-08-20T15:13:18.413Z,94202.75
2022-08-20T15:18:24.676Z,94194.00
2022-08-20T15:23:26.994Z,94187.53
2022-08-20T15:28:29.090Z,94174.22
2022-08-20T15:33:31.034Z,94172.78
2022-08-20T15:38:33.412Z,94160.94
2022-08-20T15:43:35.291Z,94158.88
2022-08-20T15:48:40.694Z,94159.06
2022-08-20T15:53:54.822Z,94145.94
2022-08-20T15:59:22.246Z,94145.94
2022-08-20T16:04:45.297Z,94141.13
2022-08-20T16:09:57.835Z,94145.63
2022-08-20T16:15:04.423Z,94131.84
2022-08-20T16:20:17.758Z,94125.81
2022-08-20T16:25:24.236Z,94128.38
2022-08-20T16:30:42.370Z,94127.16
2022-08-20T16:36:00.036Z,94118.38
2022-08-20T16:41:27.474Z,94119.38
2022-08-20T16:46:37.835Z,94126.25
2022-08-20T16:51:51.955Z,94126.66
2022-08-20T16:57:03.126Z,94123.00
2022-08-20T17:02:10.649Z,94124.59
2022-08-20T17:07:13.035Z,94127.50
2022-08-20T17:12:17.302Z,94119.94
2022-08-20T17:17:39.703Z,94121.66
2022-08-20T17:22:52.386Z,94120.72
2022-08-20T17:27:55.107Z,94105.72
2022-08-20T17:33:00.165Z,94111.75
2022-08-20T17:38:04.429Z,94104.03
2022-08-20T17:43:09.223Z,94109.31
2022-08-20T17:48:15.446Z,94111.16
2022-08-20T17:53:27.874Z,94115.03
2022-08-20T17:58:54.112Z,94110.16
2022-08-20T18:03:58.506Z,94115.63
2022-08-20T18:09:07.413Z,94128.50
2022-08-20T18:14:18.755Z,94135.56
2022-08-20T18:19:45.481Z,94128.94
2022-08-20T18:25:29.060Z,94133.75
2022-08-20T18:30:34.108Z,94146.53
2022-08-20T18:35:37.830Z,94139.78
2022-08-20T18:40:41.755Z,94139.31
2022-08-20T18:45:44.026Z,94143.72
2022-08-20T18:50:50.928Z,94149.97
2022-08-20T18:56:06.057Z,94155.78
2022-08-20T19:01:12.551Z,94160.94
2022-08-20T19:06:45.070Z,94168.16
2022-08-20T19:11:59.600Z,94167.34
2022-08-20T19:17:11.985Z,94177.78
2022-08-20T19:22:16.624Z,94184.34
2022-08-20T19:27:19.290Z,94184.91
2022-08-20T19:32:25.063Z,94177.09
2022-08-20T19:37:40.075Z,94180.72
2022-08-20T19:42:52.833Z,94186.31
2022-08-20T19:48:06.674Z,94187.06
2022-08-20T19:53:19.787Z,94196.81
2022-08-20T19:58:34.460Z,94195.19
2022-08-20T20:03:40.595Z,94190.53
2022-08-20T20:08:51.185Z,94197.94
2022-08-20T20:13:53.373Z,94214.16
2022-08-20T20:19:22.809Z,94217.66
2022-08-20T20:24:24.926Z,94231.47
2022-08-20T20:29:35.852Z,94227.63
2022-08-20T20:34:55.654Z,94214.41
2022-08-20T20:40:05.199Z,94231.72
2022-08-20T20:45:19.634Z,94237.28
2022-08-20T20:50:34.814Z,94244.25
2022-08-20T20:55:38.257Z,94239.34
2022-08-20T21:00:40.219Z,94242.53
2022-08-20T21:05:42.175Z,94245.63
2022-08-20T21:10:44.124Z,94242.84
2022-08-20T21:15:46.013Z,94242.75
2022-08-20T21:20:49.229Z,94241.72
2022-08-20T21:25:51.241Z,94249.53
2022-08-20T21:30:58.271Z,94253.28
2022-08-20T21:36:00.488Z,94254.69
2022-08-20T21:41:02.583Z,94245.09
2022-08-20T21:46:04.887Z,94251.28
2022-08-20T21:51:07.622Z,94247.25
2022-08-20T21:56:10.360Z,94254.63
2022-08-20T22:01:13.058Z,94249.63
2022-08-20T22:06:15.034Z,94247.47
2022-08-20T22:11:17.936Z,94261.69
2022-08-20T22:16:21.543Z,94253.97
2022-08-20T22:21:26.834Z,94265.53
2022-08-20T22:26:29.936Z,94262.47
2022-08-20T22:31:33.845Z,94259.34
2022-08-20T22:36:36.368Z,94255.91
2022-08-20T22:41:38.705Z,94261.75
2022-08-20T22:46:47.370Z,94256.94
2022-08-20T22:51:52.844Z,94272.50
2022-08-20T22:56:55.392Z,94261.16
2022-08-20T23:01:58.320Z,94261.56
2022-08-20T23:07:03.789Z,94267.66
2022-08-20T23:12:07.276Z,94267.78
2022-08-20T23:17:14.026Z,94267.59
2022-08-20T23:22:17.489Z,94262.84
2022-08-20T23:27:21.489Z,94256.00
2022-08-20T23:32:23.763Z,94256.03
2022-08-20T23:37:26.084Z,94258.03
2022-08-20T23:42:28.504Z,94250.72
2022-08-20T23:47:30.871Z,94255.66
2022-08-20T23:52:33.295Z,94247.69
2022-08-20T23:57:35.816Z,94249.81
